Timeline UpdatesTrip UpdatesNews PostsPvt PostsTravel TipsAdmin PostsConv PostsFollowed PostsChat RequestsBlog PostsPNR Posts

Disclaimer
Search
 
 
Mon Sep 1, 2014 19:14:32 ISTHomeTrainsΣChainsAtlasPNRForumGalleryNewsFAQTripsMembersLoginFeedback
No Recent News for this Train
Other Trains in the News **new
Latest...
Attached to 16787 @ ED, Runs Together between ED-JAT
Wed Dec 04, 2013 (07:01PM)
⇐ Return Journey: Train# 16318

16317/Himsagar Express

Time-Table HAS CHANGED.
Today (2:59PM)
Change Departure Station:
Change Arrival Station:
Post a Train Travel TipPost a Train Travel Tip **new
Post a Comment/Question/Picture/VideoPost a Comment/Question/Picture/Video
Pantry/Catering
✓ Pantry Car Avbl
✓ Catering Avbl
RSA - Rake Sharing
Rake/Coach Composition
Loco-SLR*-GEN*-A1*-S10*-S9*-S8*-S7*-PC-S6-S5-S4-S3-S2-S1-B2-B1-GEN-GEN-SLR; * Denotes the TEN-JAT slip (16787) attached @ED
Loco
CAPE to NDLS - RPM WAP 4 NDLS to JAT -...
Read more...
TKD WDM 3A
News    PNR    Forum    Time-Table    Availability    Fare Chart    Map    Arr/Dep History    Trips    Gallery    ΣChains    X/O    Timeline    
Travel Time: 51h 35m    46 halts    Distance: 2730 km    Avg Speed: 52 km/hr
Type: Mail/Express
Zone: SR/Southern
Departs @ 09:35 (Avg 4m late)
Platform# ???
      S
Tirupati Main/TPTY 
Arrives @ 13:10 +2 nights (Avg 5m late)
Platform# 2
 M     
Jammu Tawi/JAT 

46 halts. 401 intermediate Stations between Tirupati Main and Jammu Tawi

Show ALL intermediate Stations  Show Old Time-Table

#CodeStation NameX/OArrivesAvgDepartsAvgHaltPFDay#KmSpeedElevZoneAddress
1CAPEKanniyakumari (3)  -14:00 14:10+321-980.64738mSRKanyakumari, Tamil Nadu
2NCJNagercoil Junction (4)  14:20 14:30+214:25 14:35+35m11-965.15122mSRNagercoil-629002, Tamil Nadu
3KZTKulitturai  14:54 15:14+714:55 15:15+81m--1-932.05729mSRMarthandam, Tamil Nadu
4TVCTrivandrum Central (5)  15:50 15:55-216:00+010 5m31-894.07012mSRThiruvananthapuram 695001, Kerala
5QLNKollam Junction (6)X  16:55+1217:00+135m21-829.47216mSRKollam 0474-2746194, Kerala
6KYJKayamkulam Junction (5)X  17:40 17:34+917:42 17:36+82m--1-788.66111mSRAlappuzha Ph;0479-2442042, Kerala
7CNGRChengannur (3)  18:08 17:56+418:10 17:58+112m31-768.4686mSRPh: 0479-2452340, Kerala
8TRVLTiruvalla (2)X  18:18 18:06+1518:20 18:08+162m--1-759.33727mSRPh: 0469-2601314, Kerala
9KTYMKottayam (3)  19:00 18:50+1619:05 18:55+225m--1-733.63415mSRTel: 0481 2563535, Kerala
10ERNErnakulam Town (North) (2)O  20:35 20:40+1620:40 20:45+205m11-673.6509mSRTel: 0484 2395198, Kerala
11AWYAluva (3)  21:10 21:05+1521:12 21:07+142m31-656.85612mSRPh: 0484-2624141, Kerala
12TCRThrissur (4)  22:10 22:05+1922:13 22:08+213m21-602.2336mSRThrissur Tel: 0487 2423150, Kerala
13OTPOttappalam (2)  23:28+323:30+42m--1-558.15830mSROttapalam, Kerala
14PGTPalakkad Junction (4)  00:05 00:03-400:10 00:08+15m32-526.44684mSRPalghat Tel: 0491 2555231, Kerala
15CBECoimbatore Main Junction (6)X  01:20+601:25+75m22-471.170416mSRCoimbatore 641001, Tamil Nadu
16TUPTiruppur (2)X  02:08+702:10+72m22-420.660305mSRTiruppur. Ph:0421-2200450, Tamil Nadu
17EDErode Junction (4)X03:25 03:00+003:35 03:10+710m12-370.482175mSRErode ph.no: 0424-2256111, Tamil Nadu
18SASalem Junction (6)X  04:20 03:55+2204:25 04:00+225m--2-309.056283mSRSalem, Tamil Nadu
19JTJJolarpettai Junction (5)  06:08+1506:10+162m--2-188.869405mSRJolarpettai, Tamil Nadu
20KPDKatpadi Junction (5)  07:23+907:25+102m32-104.947213mSRVellore 632007, Tamil Nadu
21CTOChittoor (3)X  08:07+1308:08+151m--2-71.951305mSCR517001., Andhra Pradesh
22TPTY»Tirupati Main (5)»  09:33+109:35+42m--20.040150mSCRChittoor Distt, Andhra Pradesh
23RURenigunta Junction (5)  09:50+910:00+1310m--29.951113mSCRChittoor District, Andhra Pradesh
24GDRGudur Junction (3)  11:39 11:38+611:48 11:40+79 2m2293.39219mSCRGudur, Andhra Pradesh
25NLRNellore (4)  11:50 12:05+3811:51 12:06+381m22131.88121mSCRNellore, Andhra Pradesh
26OGLOngole (3)  13:18 13:32+4513:19 13:33+461m12248.58312mSCROngole, Andhra Pradesh
27TELTenali Junction (5)  15:02 14:50+2:0715:04 14:51+2:062 1m42355.52416mSCRTel: 08644-227834, Andhra Pradesh
28BZAVijayawada Junction (10)  16:11 16:10+1916:26 16:25+1715m--2386.89324mSCRVijayawada 520001, Andhra Pradesh
29KMTKhammam (2)  17:30+2617:32+262m22487.250118mSCRKhammam 507001, Telangana
30WLWarangal (3)  19:40+819:45+85m22594.777271mSCRWarangal., Telangana
31RDMRamagundam (3)X  21:04+1921:06+212m12695.959170mSCRKarimnagar Dist. Ph : 08728 - 255237, Telangana
32BPQBalharshah Junction (5)  23:30+1123:40+1110m--2837.755188mCRBallarpur. Ph : 07172 - 240341, Maharashtra
33CDChandrapur Maharashtra (3)  23:55+1723:57+172m--2851.573194mCRChandrapur 442401, Maharashtra
34SEGMSewagram Junction (5)  01:35+2201:36+241m--3970.166279mCRWardha, Maharashtra
35NGPNagpur Junction (8)  02:45+1502:55+1710m131046.366314mCRNagpur 440001, Maharashtra
36ETItarsi Junction (7)X  07:25+2607:30+315m--31343.452329mWCRItarsi 461111, Madhya Pradesh
37BPLBhopal Junction (6)O  09:15+4509:20+475m--31435.263497mWCRBhopal, Madhya Pradesh
38JHSJhansi Junction (7)XO  14:02 14:00+2114:10 14:12+258 12m--31727.080259mNCRJhansi, Uttar Pradesh
39GWLGwalior Junction (4)X  15:30 15:25+3615:35 15:30+365m231824.782214mNCRGwalior, Madhya Pradesh
40DHODholpur Junction (3)X  16:22 16:18+4216:24 16:20+422m131890.149177mNCRDholpur, Rajasthan
41AGCAgra Cantt. (6)  17:25+2917:30+325m231942.767174mNCRAgra, Uttar Pradesh
42FDBFaridabad (4)  20:00+2620:01+271m232109.532206mNRold Faridabad, Haryana
43NZMDelhi Hazrat Nizamuddin (7)XO  20:40+2021:10+2230m232130.315209mNRNew Delhi 110013, Delhi NCT
44NDLSNew Delhi (16)21:40+2200:10+0150m532137.720215mNRNew Delhi, Delhi NCT
45SSBShakur Basti  00:41 00:43+500:42 00:44+61m--42148.570216mNRPitampura, Delhi NCT
46BGZBahadurgarh  01:01+701:02+81m--42168.569220mNRBahadurgarh, Haryana
47ROKRohtak Junction (3)  01:35 01:37+1001:40 01:42+95m--42208.865220mNRRohtak, Haryana
48JINDJind Junction (3)  02:35+302:40+45m--42265.878222mNR126102., Haryana
49NRWNarwana Junction (4)  03:06+903:07+101m--42299.873235mNRWay to Narwana, Haryana
50TUNTohana (2)X  03:28+803:29+81m--42325.224232mNRTohana, Haryana
51JHLJakhal JunctionO  04:05 04:00-104:10 04:05+05m--42337.460225mNRJakhal, Haryana
52LHALehra Gaga (1)  04:22+1904:24+192m142354.471227mNRSangrur, Punjab
53SFMSunam (1)O  04:42+2304:44+232m142375.764235mNRSunam, Punjab
54SAGSangrur (2)X  04:56+2304:58+242m242388.530239mNRSangrur, Punjab
55DUIDhuri Junction (4)  05:30+1205:35+105m--42404.578248mNRDhuri, Punjab
56METMalerkotla (2)XO  05:48+1405:50+142m--42421.366248mNRMalerkotla., Punjab
57AHHAhmadgarh (1)X  06:07 06:08+1306:09 06:10+142m142441.226256mNRAhmedgarh, Punjab
58QRPKila Raipur (1)  06:26 06:28+606:28 06:30+62m142448.836262mNRDelhon Pakhowal Rd, Punjab
59LDHLudhiana Junction (7)X  06:50 07:00+2007:00 07:10+4210m442466.660246mNRLudhiana 141001, Punjab
60PHRPhillaur Junction (3)X  07:23+4807:25+482m242479.775246mNRPhillaur, Punjab
61PGWPhagwara Junction (3)X  07:43+4207:45+442m242502.265245mNRPhagwara, Punjab
62JRCJalandhar Cantt. Junction (3)O  08:00+5208:05+535m342518.563239mNRNear Rama Mandi, Punjab
63TDOTanda Urmar (3)  08:45+5208:47+552m142560.866239mNRUrmar Tanda, Punjab
64DZADasuya (2)  09:01+5609:03+562m242576.156251mNRDasuya distt. hoshiarpur, Punjab
65MEXMukerian (3)X  09:19+5709:21+572m242591.235257mNRMukerian distt. hosiharpur, Punjab
66PTKCPathankot Cantt (3)X  10:30+2910:35+385m242631.032328mNRPathankot By Pass Ph:0186-2251594, Punjab
67KTHUKathua (2)X  11:19+3311:21+332m142654.262396mNRdistt. kathua, Jammu and Kashmir
68SMBXSamba (2)O  12:04 12:03+3312:05+351 2m242697.830365mNRDist. Samba, Jammu and Kashmir
69JAT•Jammu Tawi (3)•  13:10+5-242730.5-337mNRJammu 180002, Jammu and Kashmir
Scroll to Top
Scroll to Bottom